Time;durP1;ratioP1;P1;durP2;ratioP2;P2;SDS_P1;SDS_P2;PMS_P1;PMS_P2;Temp;Humidity;BMP_temperature;BMP_pressure;BME280_temperature;BME280_humidity;BME280_pressure;Samples;Min_cycle;Max_cycle;Signal;HPM_P1;HPM_P2
2021/05/14 00:01:40;;;;;;;1.10;0.67;;;11.70;99.90;;;;;;5071076;28;20572;-78
2021/05/14 00:04:07;;;;;;;1.43;1.10;;;11.50;99.90;;;;;;5070437;28;20230;-79
2021/05/14 00:06:33;;;;;;;1.53;1.30;;;11.50;99.90;;;;;;5070727;28;20662;-77
2021/05/14 00:09:00;;;;;;;1.33;1.23;;;11.60;99.90;;;;;;5070601;28;20674;-77
2021/05/14 00:11:27;;;;;;;2.13;1.10;;;11.60;99.90;;;;;;5070472;28;20210;-77
2021/05/14 00:13:53;;;;;;;2.70;1.40;;;11.60;99.90;;;;;;5070478;28;20213;-78
2021/05/14 00:16:21;;;;;;;1.20;1.10;;;11.60;99.90;;;;;;5070608;28;20208;-76
2021/05/14 00:18:48;;;;;;;1.83;1.13;;;11.60;99.90;;;;;;5071246;28;20578;-80
2021/05/14 00:21:15;;;;;;;1.07;0.97;;;11.60;99.90;;;;;;5070885;28;20210;-79
2021/05/14 00:23:41;;;;;;;0.90;0.80;;;11.60;99.90;;;;;;5070232;28;20234;-78
2021/05/14 00:26:09;;;;;;;2.53;1.10;;;11.60;99.90;;;;;;5070225;28;20214;-77
2021/05/14 00:28:35;;;;;;;1.33;1.10;;;11.50;99.90;;;;;;5070696;28;20579;-76
2021/05/14 00:31:02;;;;;;;1.47;0.90;;;11.50;99.90;;;;;;5070469;28;20210;-77
2021/05/14 00:33:28;;;;;;;2.20;1.13;;;11.40;99.90;;;;;;5070324;28;20217;-76
2021/05/14 00:35:55;;;;;;;1.17;1.07;;;11.30;99.90;;;;;;5070637;28;20259;-79
2021/05/14 00:38:21;;;;;;;2.47;1.03;;;11.10;99.90;;;;;;5071033;28;20279;-80
2021/05/14 00:40:48;;;;;;;4.43;1.23;;;11.10;99.90;;;;;;5069830;28;20202;-78
2021/05/14 00:43:15;;;;;;;1.67;1.33;;;11.10;99.90;;;;;;5070215;28;20590;-79
2021/05/14 00:45:41;;;;;;;3.20;1.50;;;11.00;99.90;;;;;;5070465;28;20206;-77
2021/05/14 00:48:08;;;;;;;2.43;1.90;;;11.00;99.90;;;;;;5070245;28;20361;-75
2021/05/14 00:50:34;;;;;;;2.80;1.83;;;11.00;99.90;;;;;;5070302;28;20677;-78
2021/05/14 00:53:01;;;;;;;6.17;1.97;;;10.90;99.90;;;;;;5070434;28;20214;-80
2021/05/14 00:55:27;;;;;;;4.67;1.80;;;10.90;99.90;;;;;;5070309;28;20202;-82
2021/05/14 00:57:54;;;;;;;4.37;1.37;;;10.90;99.90;;;;;;5070258;28;20217;-81
2021/05/14 01:00:22;;;;;;;6.97;2.27;;;10.80;99.90;;;;;;5070229;28;20255;-81
2021/05/14 01:02:51;;;;;;;3.30;1.70;;;10.90;99.90;;;;;;5070534;28;20213;-85
2021/05/14 01:05:18;;;;;;;4.33;2.23;;;10.80;99.90;;;;;;5071083;28;20201;-79
2021/05/14 01:07:44;;;;;;;5.53;1.60;;;10.80;99.90;;;;;;5070648;28;20213;-84
2021/05/14 01:10:11;;;;;;;5.57;1.70;;;10.80;99.90;;;;;;5069544;28;20203;-78
2021/05/14 01:12:38;;;;;;;5.50;1.60;;;10.80;99.90;;;;;;5070297;28;20720;-81
2021/05/14 01:15:06;;;;;;;6.37;1.30;;;10.80;99.90;;;;;;5069734;28;20213;-80
2021/05/14 01:17:34;;;;;;;3.10;2.37;;;10.70;99.90;;;;;;5070724;28;20251;-82
2021/05/14 01:20:01;;;;;;;1.93;1.10;;;10.70;99.90;;;;;;5070241;28;20301;-93
2021/05/14 01:22:28;;;;;;;3.73;1.47;;;10.70;99.90;;;;;;5071334;28;20202;-90
2021/05/14 01:24:55;;;;;;;7.50;2.10;;;10.70;99.90;;;;;;5069884;28;20652;-83
2021/05/14 01:27:22;;;;;;;2.87;1.83;;;10.60;99.90;;;;;;5070626;28;20209;-81
2021/05/14 01:29:49;;;;;;;5.50;2.23;;;10.60;99.90;;;;;;5070910;28;20210;-83
2021/05/14 01:32:16;;;;;;;6.83;1.70;;;10.60;99.90;;;;;;5070039;28;20198;-84
2021/05/14 01:34:42;;;;;;;6.57;2.07;;;10.60;99.90;;;;;;5070357;28;20696;-81
2021/05/14 01:37:09;;;;;;;4.03;1.90;;;10.50;99.90;;;;;;5069798;28;20211;-83
2021/05/14 01:39:38;;;;;;;5.17;1.87;;;10.50;99.90;;;;;;5070130;28;20214;-81
2021/05/14 01:42:05;;;;;;;7.60;2.00;;;10.50;99.90;;;;;;5069651;28;20210;-82
2021/05/14 01:44:31;;;;;;;3.93;1.77;;;10.50;99.90;;;;;;5070122;28;20697;-76
2021/05/14 01:46:58;;;;;;;5.53;1.70;;;10.50;99.90;;;;;;5069655;28;20233;-74
2021/05/14 01:49:24;;;;;;;2.93;1.93;;;10.50;99.90;;;;;;5070104;28;20202;-75
2021/05/14 01:51:51;;;;;;;10.13;2.60;;;10.40;99.90;;;;;;5070732;28;20206;-78
2021/05/14 01:54:19;;;;;;;8.57;2.37;;;10.50;99.90;;;;;;5073433;28;20377;-78
2021/05/14 01:56:47;;;;;;;7.00;1.97;;;10.50;99.90;;;;;;5073745;28;20206;-79
2021/05/14 01:59:13;;;;;;;6.63;1.93;;;10.50;99.90;;;;;;5073250;28;20553;-74
2021/05/14 02:01:40;;;;;;;7.37;2.73;;;10.40;99.90;;;;;;5073179;28;20711;-75
2021/05/14 02:04:07;;;;;;;9.30;3.03;;;10.40;99.90;;;;;;5073006;28;20603;-79
2021/05/14 02:06:34;;;;;;;8.07;2.80;;;10.30;99.90;;;;;;5073244;28;20213;-75
2021/05/14 02:09:01;;;;;;;5.67;1.97;;;10.40;99.90;;;;;;5072665;28;20210;-79
2021/05/14 02:11:27;;;;;;;9.00;2.20;;;10.30;99.90;;;;;;5058710;28;20211;-76
2021/05/14 02:13:55;;;;;;;5.27;2.27;;;10.30;99.90;;;;;;5072752;28;20202;-80
2021/05/14 02:16:21;;;;;;;7.10;2.60;;;10.30;99.90;;;;;;5072230;28;20252;-79
2021/05/14 02:18:48;;;;;;;3.87;1.93;;;10.30;99.90;;;;;;5080199;28;20208;-83
2021/05/14 02:21:14;;;;;;;4.87;2.43;;;10.30;99.90;;;;;;5092760;28;20229;-80
2021/05/14 02:23:41;;;;;;;10.83;2.67;;;10.30;99.90;;;;;;5092831;28;20229;-76
2021/05/14 02:26:07;;;;;;;7.90;2.80;;;10.30;99.90;;;;;;5092668;28;20209;-75
2021/05/14 02:28:35;;;;;;;4.33;2.20;;;10.30;99.90;;;;;;5092964;28;20205;-80
2021/05/14 02:31:03;;;;;;;10.20;3.10;;;10.20;99.90;;;;;;5092560;28;20204;-77
2021/05/14 02:33:30;;;;;;;9.93;3.47;;;10.20;99.90;;;;;;5093128;28;20209;-76
2021/05/14 02:35:56;;;;;;;11.40;2.43;;;10.30;99.90;;;;;;5092174;28;20210;-78
2021/05/14 02:38:23;;;;;;;8.93;2.50;;;10.30;99.90;;;;;;5092555;28;20251;-79
2021/05/14 02:40:49;;;;;;;6.47;2.10;;;10.20;99.90;;;;;;5093120;28;20581;-74
2021/05/14 02:43:17;;;;;;;8.73;2.83;;;10.10;99.90;;;;;;5092659;28;20228;-75
2021/05/14 02:45:43;;;;;;;8.87;2.27;;;10.10;99.90;;;;;;5093201;28;20205;-81
2021/05/14 02:48:11;;;;;;;7.43;3.23;;;10.20;99.90;;;;;;5092392;28;20212;-80
2021/05/14 02:50:38;;;;;;;9.13;2.57;;;10.20;99.90;;;;;;5092950;28;20267;-82
2021/05/14 02:53:05;;;;;;;9.57;2.73;;;10.20;99.90;;;;;;5091840;28;20201;-81
2021/05/14 02:55:31;;;;;;;6.43;2.23;;;10.10;99.90;;;;;;5093233;28;20198;-77
2021/05/14 02:57:58;;;;;;;4.30;1.83;;;10.10;99.90;;;;;;5091320;28;20205;-75
2021/05/14 03:00:25;;;;;;;7.33;2.50;;;10.00;99.90;;;;;;5079610;28;20208;-80
2021/05/14 03:02:51;;;;;;;11.90;2.97;;;10.10;99.90;;;;;;5092588;28;20217;-77
2021/05/14 03:05:19;;;;;;;6.53;2.33;;;10.10;99.90;;;;;;5091999;28;20197;-76
2021/05/14 03:07:45;;;;;;;5.40;3.43;;;10.10;99.90;;;;;;5092704;28;20206;-77
2021/05/14 03:10:12;;;;;;;8.00;2.87;;;10.20;99.90;;;;;;5091991;28;20209;-79
2021/05/14 03:12:39;;;;;;;7.13;2.50;;;10.20;99.90;;;;;;5092562;28;20206;-78
2021/05/14 03:15:07;;;;;;;10.80;3.50;;;10.20;99.90;;;;;;5091763;28;20205;-78
2021/05/14 03:17:34;;;;;;;6.37;2.23;;;10.30;99.90;;;;;;5092297;28;20206;-79
2021/05/14 03:20:01;;;;;;;6.53;2.57;;;10.20;99.90;;;;;;5091036;28;20209;-77
2021/05/14 03:22:28;;;;;;;5.93;2.33;;;10.40;99.90;;;;;;5092132;28;20669;-78
2021/05/14 03:24:55;;;;;;;9.03;2.37;;;10.40;99.90;;;;;;5091537;28;20252;-79
2021/05/14 03:27:23;;;;;;;5.07;2.27;;;10.30;99.90;;;;;;5091860;28;20198;-78
2021/05/14 03:29:49;;;;;;;6.17;2.13;;;10.30;99.90;;;;;;5092350;28;20210;-79
2021/05/14 03:32:16;;;;;;;7.80;2.03;;;10.30;99.90;;;;;;5091859;28;20275;-80
2021/05/14 03:34:43;;;;;;;4.90;2.20;;;10.40;99.90;;;;;;5091569;28;20209;-78
2021/05/14 03:37:10;;;;;;;8.10;2.50;;;10.40;99.90;;;;;;5091177;28;20688;-79
2021/05/14 03:39:42;;;;;;;6.97;2.87;;;10.40;99.90;;;;;;5092163;28;20262;-83
2021/05/14 03:42:13;;;;;;;8.83;2.90;;;10.30;99.90;;;;;;5091781;28;20205;-83
2021/05/14 03:44:40;;;;;;;13.57;3.07;;;10.40;99.90;;;;;;5091911;28;20232;-79
2021/05/14 03:47:07;;;;;;;7.57;3.47;;;10.40;99.90;;;;;;5091353;28;20205;-81
2021/05/14 03:49:35;;;;;;;6.00;2.67;;;10.40;99.90;;;;;;5091698;28;20201;-81
2021/05/14 03:52:05;;;;;;;6.40;1.93;;;10.40;99.90;;;;;;5091443;28;20575;-80
2021/05/14 03:54:32;;;;;;;8.50;2.70;;;10.30;99.90;;;;;;5091416;28;20205;-80
2021/05/14 03:56:59;;;;;;;4.17;2.33;;;10.30;99.90;;;;;;5091141;28;20618;-79
2021/05/14 03:59:26;;;;;;;7.07;2.13;;;10.30;99.90;;;;;;5091364;28;20206;-78
2021/05/14 04:01:53;;;;;;;4.70;2.13;;;10.30;99.90;;;;;;5090885;28;20205;-81
2021/05/14 04:04:21;;;;;;;8.47;2.83;;;10.20;99.90;;;;;;5091030;28;20244;-77
2021/05/14 04:06:47;;;;;;;6.27;2.13;;;10.30;99.90;;;;;;5091850;28;20284;-80
2021/05/14 04:09:17;;;;;;;4.10;2.60;;;10.30;99.90;;;;;;5091060;28;20208;-78
2021/05/14 04:12:07;;;;;;;5.97;2.13;;;10.30;99.90;;;;;;5091076;28;20209;-79
2021/05/14 04:14:34;;;;;;;7.00;2.00;;;10.40;99.90;;;;;;5090713;28;20624;-79
2021/05/14 04:17:03;;;;;;;7.13;2.10;;;10.60;99.90;;;;;;5090162;28;20561;-76
2021/05/14 04:19:29;;;;;;;10.70;3.03;;;10.60;99.90;;;;;;5090916;28;20631;-76
2021/05/14 04:21:57;;;;;;;6.80;2.70;;;10.70;99.90;;;;;;5090447;28;20240;-79
2021/05/14 04:24:25;;;;;;;6.23;2.13;;;10.60;99.90;;;;;;5090764;28;20244;-77
2021/05/14 04:26:54;;;;;;;8.33;3.07;;;10.60;99.90;;;;;;5090506;28;20201;-78
2021/05/14 04:29:21;;;;;;;8.60;2.93;;;10.60;99.90;;;;;;5091112;28;20202;-80
2021/05/14 04:31:49;;;;;;;9.53;3.43;;;10.60;99.90;;;;;;5091567;28;20228;-79
2021/05/14 04:34:16;;;;;;;6.33;2.97;;;10.60;99.90;;;;;;5090353;28;20664;-77
2021/05/14 04:36:43;;;;;;;5.17;2.97;;;10.60;99.90;;;;;;5091102;28;20593;-78
2021/05/14 04:39:10;;;;;;;10.53;4.50;;;10.70;99.90;;;;;;5090276;28;20585;-79
2021/05/14 04:41:38;;;;;;;11.23;3.23;;;10.70;99.90;;;;;;5091038;28;20570;-78
2021/05/14 04:44:05;;;;;;;7.60;2.73;;;10.70;99.90;;;;;;5090072;28;20341;-75
2021/05/14 04:46:32;;;;;;;6.10;2.90;;;10.80;99.90;;;;;;5090934;28;20205;-76
2021/05/14 04:48:59;;;;;;;11.50;2.80;;;10.70;99.90;;;;;;5090172;28;20262;-77
2021/05/14 04:51:27;;;;;;;10.53;3.53;;;10.70;99.90;;;;;;5085401;28;20197;-76
2021/05/14 04:53:54;;;;;;;7.17;3.13;;;10.80;99.90;;;;;;5071483;28;20210;-74
2021/05/14 04:56:21;;;;;;;7.23;3.50;;;10.70;99.90;;;;;;5089352;28;20198;-76
2021/05/14 04:58:47;;;;;;;9.37;3.17;;;10.80;99.90;;;;;;5083432;28;20733;-77
2021/05/14 05:01:15;;;;;;;6.70;3.53;;;10.60;99.90;;;;;;5090098;28;20216;-75
2021/05/14 05:03:45;;;;;;;8.20;3.70;;;10.60;99.90;;;;;;5090262;28;20233;-78
2021/05/14 05:06:12;;;;;;;6.03;3.20;;;10.70;99.90;;;;;;5089808;28;20566;-74
2021/05/14 05:08:39;;;;;;;8.73;3.60;;;10.80;99.90;;;;;;5090540;28;20205;-76
2021/05/14 05:11:06;;;;;;;11.40;3.03;;;10.90;99.90;;;;;;5085184;28;20256;-77
2021/05/14 05:13:33;;;;;;;7.23;3.07;;;10.90;99.90;;;;;;5062594;28;20292;-77
2021/05/14 05:15:59;;;;;;;7.27;3.60;;;10.90;99.90;;;;;;5090018;28;20311;-77
2021/05/14 05:18:26;;;;;;;8.47;3.13;;;10.80;99.90;;;;;;5090501;28;20201;-77
2021/05/14 05:20:52;;;;;;;10.93;3.57;;;10.70;99.90;;;;;;5090110;28;20228;-75
2021/05/14 05:23:20;;;;;;;7.70;3.03;;;10.70;99.90;;;;;;5090560;28;20206;-74
2021/05/14 05:25:47;;;;;;;9.23;4.20;;;10.70;99.90;;;;;;5090303;28;20216;-74
2021/05/14 05:28:14;;;;;;;9.30;2.97;;;10.60;99.90;;;;;;5092884;28;20213;-76
2021/05/14 05:30:40;;;;;;;11.63;3.30;;;10.60;99.90;;;;;;5094051;28;20198;-75
2021/05/14 05:33:07;;;;;;;7.40;3.10;;;10.60;99.90;;;;;;5094070;28;20259;-73
2021/05/14 05:35:33;;;;;;;15.13;5.70;;;10.70;99.90;;;;;;5094091;28;20212;-80
2021/05/14 05:38:00;;;;;;;6.30;3.47;;;10.70;99.90;;;;;;5093976;28;20216;-79
2021/05/14 05:40:28;;;;;;;7.77;3.27;;;10.60;99.90;;;;;;5094097;28;20213;-75
2021/05/14 05:42:54;;;;;;;6.13;3.20;;;10.60;99.90;;;;;;5093817;28;20237;-77
2021/05/14 05:45:20;;;;;;;8.90;3.83;;;10.60;99.90;;;;;;5093817;28;20232;-76
2021/05/14 05:47:47;;;;;;;7.90;3.20;;;10.70;99.90;;;;;;5092360;28;20201;-80
2021/05/14 05:50:13;;;;;;;11.03;3.13;;;10.60;99.90;;;;;;5093564;28;20221;-79
2021/05/14 05:52:40;;;;;;;4.97;2.50;;;10.70;99.90;;;;;;5093851;28;20216;-77
2021/05/14 05:55:07;;;;;;;7.47;3.10;;;10.80;99.90;;;;;;5093825;28;20209;-79
2021/05/14 05:57:35;;;;;;;3.83;2.00;;;10.70;99.90;;;;;;5079497;28;20214;-77
2021/05/14 06:00:01;;;;;;;9.47;2.60;;;10.90;99.90;;;;;;5093303;28;20326;-78
2021/05/14 06:02:27;;;;;;;7.77;2.57;;;10.90;99.90;;;;;;5093549;28;20668;-78
2021/05/14 06:04:54;;;;;;;9.93;2.67;;;11.00;99.90;;;;;;5093099;28;20225;-78
2021/05/14 06:07:20;;;;;;;5.30;1.90;;;11.00;99.90;;;;;;5093915;28;20212;-78
2021/05/14 06:09:47;;;;;;;11.20;2.93;;;11.40;99.90;;;;;;5093813;28;20208;-78
2021/05/14 06:12:13;;;;;;;3.70;1.93;;;11.30;99.90;;;;;;5093224;28;20209;-80
2021/05/14 06:14:41;;;;;;;9.27;2.20;;;11.30;99.90;;;;;;5093125;28;20220;-80
2021/05/14 06:17:12;;;;;;;7.87;2.43;;;11.20;99.90;;;;;;5092998;28;20210;-81
2021/05/14 06:19:45;;;;;;;3.77;2.37;;;11.10;99.90;;;;;;5075338;28;20202;-76
2021/05/14 06:22:11;;;;;;;2.90;1.70;;;11.10;99.90;;;;;;5092895;28;20237;-78
2021/05/14 06:24:38;;;;;;;3.87;2.17;;;11.30;99.90;;;;;;5091382;28;20241;-78
2021/05/14 06:27:05;;;;;;;5.90;1.67;;;11.50;99.90;;;;;;5091628;28;20209;-78
2021/05/14 06:29:32;;;;;;;4.40;1.90;;;11.70;99.90;;;;;;5092959;28;20201;-78
2021/05/14 06:31:59;;;;;;;3.97;2.07;;;12.00;99.90;;;;;;5092984;28;20209;-78
2021/05/14 06:34:27;;;;;;;4.40;1.57;;;12.40;99.90;;;;;;5093066;28;20258;-79
2021/05/14 06:36:54;;;;;;;2.53;1.63;;;12.60;99.90;;;;;;5092612;28;20237;-78
2021/05/14 06:39:21;;;;;;;5.77;3.63;;;12.50;99.90;;;;;;5091755;28;20209;-78
2021/05/14 06:41:47;;;;;;;3.43;2.73;;;12.50;99.90;;;;;;5093394;28;20206;-78
2021/05/14 06:44:13;;;;;;;7.27;2.27;;;12.20;99.90;;;;;;5092079;28;20225;-75
2021/05/14 06:46:40;;;;;;;3.70;2.30;;;11.90;99.90;;;;;;5084299;28;20229;-75
2021/05/14 06:49:08;;;;;;;3.40;1.93;;;11.60;99.90;;;;;;5078659;28;20673;-75
2021/05/14 06:51:34;;;;;;;3.93;1.80;;;11.60;99.90;;;;;;5092839;28;20250;-75
2021/05/14 06:54:01;;;;;;;4.50;2.30;;;11.70;99.90;;;;;;5090464;28;20201;-75
2021/05/14 06:56:28;;;;;;;8.90;2.00;;;11.80;99.90;;;;;;5092261;28;20624;-73
2021/05/14 06:58:54;;;;;;;8.10;2.50;;;11.70;99.90;;;;;;5092069;28;20201;-74
2021/05/14 07:01:21;;;;;;;3.13;1.40;;;11.70;99.90;;;;;;5087145;28;20199;-75
2021/05/14 07:03:48;;;;;;;2.10;1.60;;;11.60;99.90;;;;;;5073441;28;20230;-76
2021/05/14 07:06:16;;;;;;;4.03;1.73;;;11.40;99.90;;;;;;5072578;28;20214;-75
2021/05/14 07:08:42;;;;;;;7.07;2.27;;;11.40;99.90;;;;;;5073797;28;20233;-77
2021/05/14 07:11:09;;;;;;;4.00;2.37;;;11.30;99.90;;;;;;5072030;28;20206;-76
2021/05/14 07:13:35;;;;;;;4.33;1.80;;;11.30;99.90;;;;;;5066269;28;20206;-78
2021/05/14 07:16:02;;;;;;;4.63;1.87;;;11.30;99.90;;;;;;5073083;28;20202;-76
2021/05/14 07:18:28;;;;;;;2.93;1.80;;;11.40;99.90;;;;;;5068371;28;20669;-75
2021/05/14 07:20:55;;;;;;;5.07;1.70;;;11.40;99.90;;;;;;5063651;28;20206;-77
2021/05/14 07:23:22;;;;;;;1.77;1.33;;;11.50;99.90;;;;;;5068859;28;20213;-75
2021/05/14 07:25:49;;;;;;;5.47;1.93;;;11.80;99.90;;;;;;5079685;28;20219;-74
2021/05/14 07:28:16;;;;;;;5.07;1.40;;;11.90;99.90;;;;;;5085133;28;20211;-76
2021/05/14 07:30:42;;;;;;;3.63;1.67;;;12.10;99.90;;;;;;5083792;28;20212;-76
2021/05/14 07:33:09;;;;;;;2.73;1.83;;;12.20;99.90;;;;;;5066501;28;20211;-76
2021/05/14 07:35:35;;;;;;;3.27;1.83;;;12.20;99.90;;;;;;5082801;28;20274;-75
2021/05/14 07:38:02;;;;;;;2.90;1.50;;;12.40;99.90;;;;;;5085489;28;20739;-75
2021/05/14 07:40:29;;;;;;;2.67;1.52;;;12.60;99.90;;;;;;5085421;28;20202;-74
2021/05/14 07:42:56;;;;;;;4.70;1.70;;;12.80;99.90;;;;;;5089176;28;20669;-74
2021/05/14 07:45:23;;;;;;;3.50;1.30;;;13.20;99.90;;;;;;5072125;28;20300;-72
2021/05/14 07:47:49;;;;;;;5.10;2.07;;;13.30;99.90;;;;;;5081329;28;20202;-72
2021/05/14 07:50:16;;;;;;;3.77;1.57;;;13.10;99.90;;;;;;5077143;28;20206;-72
2021/05/14 07:52:42;;;;;;;4.93;1.70;;;13.10;99.90;;;;;;5078893;28;20565;-72
2021/05/14 07:55:10;;;;;;;5.83;1.90;;;12.90;99.90;;;;;;5067777;28;20574;-73
2021/05/14 07:57:37;;;;;;;5.40;1.40;;;12.80;99.90;;;;;;5072386;28;20336;-73
2021/05/14 08:00:05;;;;;;;6.53;3.92;;;12.60;99.90;;;;;;5080311;28;20216;-72
2021/05/14 08:02:32;;;;;;;5.35;2.65;;;12.70;99.90;;;;;;5073599;28;20202;-72
2021/05/14 08:04:58;;;;;;;8.20;3.33;;;13.00;99.90;;;;;;5070812;28;20222;-73
2021/05/14 08:07:24;;;;;;;3.47;1.93;;;13.10;99.90;;;;;;5073092;28;20236;-73
2021/05/14 08:09:51;;;;;;;4.28;2.17;;;13.40;99.90;;;;;;5083903;28;20205;-72
2021/05/14 08:12:17;;;;;;;3.78;1.70;;;13.80;99.90;;;;;;5066225;28;20213;-72
2021/05/14 08:14:46;;;;;;;4.35;1.65;;;14.00;99.90;;;;;;5068674;28;20240;-71
2021/05/14 08:17:12;;;;;;;2.70;1.58;;;14.50;99.90;;;;;;5070445;28;20673;-72
2021/05/14 08:19:39;;;;;;;3.53;1.42;;;14.00;99.90;;;;;;5062593;28;20225;-72
2021/05/14 08:22:05;;;;;;;4.13;1.67;;;13.10;99.90;;;;;;5071032;28;20214;-71
2021/05/14 08:24:32;;;;;;;5.88;2.28;;;12.70;99.90;;;;;;5081495;28;20287;-72
2021/05/14 08:26:58;;;;;;;3.70;1.48;;;12.40;99.90;;;;;;5089076;28;20573;-72
2021/05/14 08:29:25;;;;;;;4.57;1.67;;;12.50;99.90;;;;;;5091251;28;20201;-72
2021/05/14 08:31:53;;;;;;;5.70;1.90;;;13.00;99.90;;;;;;5082711;28;20705;-72
2021/05/14 08:34:19;;;;;;;3.05;1.83;;;12.90;99.90;;;;;;5070300;28;20578;-72
2021/05/14 08:36:46;;;;;;;2.78;1.67;;;14.50;99.90;;;;;;5058952;28;20252;-75
2021/05/14 08:39:12;;;;;;;3.15;0.93;;;16.00;99.90;;;;;;5068933;28;20210;-71
2021/05/14 08:41:39;;;;;;;4.55;1.30;;;15.80;99.90;;;;;;5061303;28;20217;-72
2021/05/14 08:44:06;;;;;;;2.15;1.33;;;17.00;99.90;;;;;;5073516;28;20332;-71
2021/05/14 08:46:35;;;;;;;3.97;1.55;;;18.30;99.90;;;;;;5075262;28;20198;-71
2021/05/14 08:49:04;;;;;;;6.85;1.98;;;17.40;99.90;;;;;;5073501;28;20206;-71
2021/05/14 08:51:31;;;;;;;2.95;1.05;;;15.40;99.90;;;;;;5076158;28;20228;-71
2021/05/14 08:54:01;;;;;;;3.03;1.88;;;14.20;99.90;;;;;;5073425;28;20233;-72
2021/05/14 08:56:28;;;;;;;6.32;1.60;;;13.70;99.90;;;;;;5077305;28;20262;-71
2021/05/14 08:58:54;;;;;;;4.43;1.30;;;16.50;99.90;;;;;;5071576;28;20210;-72
2021/05/14 09:01:21;;;;;;;3.22;1.40;;;18.70;99.90;;;;;;5067549;28;20315;-73
2021/05/14 09:04:05;;;;;;;3.10;1.02;;;19.20;99.90;;;;;;5065483;28;20717;-75
2021/05/14 09:06:34;;;;;;;2.25;1.45;;;19.50;99.90;;;;;;5075897;28;20193;-72
2021/05/14 09:09:03;;;;;;;3.33;1.63;;;18.70;99.90;;;;;;5062715;28;20218;-72
2021/05/14 09:11:35;;;;;;;3.80;0.95;;;16.60;99.90;;;;;;5088356;28;20212;-73
2021/05/14 09:14:01;;;;;;;2.50;0.98;;;14.80;99.90;;;;;;5074817;28;20213;-71
2021/05/14 09:16:41;;;;;;;3.88;1.05;;;13.40;99.90;;;;;;5087065;28;20208;-73
2021/05/14 09:19:09;;;;;;;1.30;0.70;;;12.60;99.90;;;;;;5069534;28;20206;-72
2021/05/14 09:21:36;;;;;;;7.05;1.85;;;12.50;99.90;;;;;;5072370;28;20206;-73
2021/05/14 09:24:03;;;;;;;2.38;1.02;;;12.70;99.90;;;;;;5073611;28;20238;-74
2021/05/14 09:26:31;;;;;;;2.88;1.70;;;12.90;99.90;;;;;;5084671;28;20210;-72
2021/05/14 09:28:58;;;;;;;2.13;1.30;;;13.10;99.90;;;;;;5093537;28;20202;-72
2021/05/14 09:31:25;;;;;;;4.07;1.30;;;14.10;99.90;;;;;;5094528;28;20202;-71
2021/05/14 09:33:53;;;;;;;3.60;1.17;;;14.80;99.90;;;;;;5093883;28;20212;-72
2021/05/14 09:36:22;;;;;;;5.10;1.38;;;14.50;99.90;;;;;;5094296;28;20205;-72
2021/05/14 09:38:50;;;;;;;3.78;1.58;;;14.10;99.90;;;;;;5094116;28;20206;-71
2021/05/14 09:41:29;;;;;;;2.35;1.23;;;14.30;99.90;;;;;;5094452;28;20210;-73
2021/05/14 09:43:57;;;;;;;3.22;1.40;;;15.30;99.90;;;;;;5093406;28;20229;-72
2021/05/14 09:46:28;;;;;;;1.70;0.95;;;16.00;99.90;;;;;;5094276;28;20208;-72
2021/05/14 09:48:57;;;;;;;7.20;1.70;;;16.00;99.90;;;;;;5093739;28;20208;-73
2021/05/14 09:51:26;;;;;;;2.50;0.90;;;15.20;99.90;;;;;;5093546;28;20201;-74
2021/05/14 09:53:53;;;;;;;3.22;0.70;;;15.60;99.90;;;;;;5093543;28;20291;-73
2021/05/14 09:56:27;;;;;;;1.63;0.90;;;16.50;99.90;;;;;;5093915;28;20208;-72
2021/05/14 09:58:59;;;;;;;2.80;1.20;;;16.60;99.90;;;;;;5093256;28;20227;-72
2021/05/14 10:01:27;;;;;;;1.50;1.00;;;17.10;99.90;;;;;;5093647;28;20284;-73
2021/05/14 10:03:55;;;;;;;2.00;1.30;;;16.40;99.90;;;;;;5093259;28;20222;-72
2021/05/14 10:06:23;;;;;;;2.08;1.08;;;16.90;99.90;;;;;;5093033;28;20285;-73
2021/05/14 10:08:52;;;;;;;3.40;1.08;;;17.40;99.90;;;;;;5094037;28;20263;-73
2021/05/14 10:11:24;;;;;;;2.35;1.20;;;16.70;99.90;;;;;;5093837;28;20237;-72
2021/05/14 10:13:52;;;;;;;1.95;1.20;;;15.90;99.90;;;;;;5092003;28;20210;-73
2021/05/14 10:16:19;;;;;;;2.90;1.10;;;18.10;99.90;;;;;;5093622;28;20211;-75
2021/05/14 10:18:49;;;;;;;1.23;1.10;;;18.70;99.90;;;;;;5093619;28;20209;-74
2021/05/14 10:21:17;;;;;;;2.45;1.23;;;19.90;99.90;;;;;;5093002;28;20205;-73
2021/05/14 10:23:45;;;;;;;2.38;1.23;;;19.20;99.90;;;;;;5093216;28;20236;-75
2021/05/14 10:26:13;;;;;;;1.45;0.85;;;22.00;99.90;;;;;;5092869;28;20217;-73
2021/05/14 10:28:44;;;;;;;1.52;0.70;;;21.90;99.90;;;;;;5093078;28;20225;-75
2021/05/14 10:31:42;;;;;;;1.08;0.77;;;19.60;99.90;;;;;;5092828;28;20259;-73
2021/05/14 10:34:13;;;;;;;2.90;0.90;;;17.70;99.90;;;;;;5092744;28;20213;-73
2021/05/14 10:36:49;;;;;;;1.33;0.75;;;16.50;99.90;;;;;;5093124;28;20209;-72
2021/05/14 10:39:27;;;;;;;2.55;1.05;;;16.00;99.90;;;;;;5092546;28;20621;-75
2021/05/14 10:41:59;;;;;;;4.30;0.90;;;16.20;99.90;;;;;;5092622;28;20232;-73
2021/05/14 10:44:52;;;;;;;3.08;0.93;;;16.30;99.90;;;;;;5092791;28;20210;-73
2021/05/14 10:47:47;;;;;;;2.47;1.20;;;16.60;99.90;;;;;;5083836;28;20209;-72
2021/05/14 10:50:30;;;;;;;5.45;2.22;;;16.70;99.90;;;;;;5092259;28;20209;-72
2021/05/14 10:53:29;;;;;;;1.50;0.98;;;16.90;99.90;;;;;;5079109;28;20205;-73
2021/05/14 10:56:12;;;;;;;2.22;0.90;;;16.80;99.90;;;;;;5079118;28;20209;-71
2021/05/14 10:58:46;;;;;;;3.33;1.60;;;16.70;99.90;;;;;;5043152;28;20207;-71
2021/05/14 11:01:38;;;;;;;2.38;1.48;;;17.00;99.90;;;;;;5071180;28;20209;-72
2021/05/14 11:04:05;;;;;;;5.32;1.40;;;16.90;99.90;;;;;;5070136;28;20317;-71
2021/05/14 11:06:42;;;;;;;1.42;0.98;;;16.80;99.90;;;;;;5064426;28;20202;-72
2021/05/14 11:09:11;;;;;;;1.42;1.05;;;17.00;99.90;;;;;;5064050;28;20673;-73
2021/05/14 11:11:58;;;;;;;2.33;1.70;;;17.40;99.90;;;;;;5076350;28;20285;-72
2021/05/14 11:14:26;;;;;;;5.72;1.63;;;17.70;99.90;;;;;;5075148;28;20221;-73
2021/05/14 11:16:53;;;;;;;2.95;1.27;;;17.50;99.90;;;;;;5077755;28;20217;-75
2021/05/14 11:19:22;;;;;;;2.55;1.17;;;17.50;99.90;;;;;;5071657;28;20222;-73
2021/05/14 11:21:59;;;;;;;5.95;1.63;;;17.20;99.90;;;;;;5073329;28;20202;-72
2021/05/14 11:24:37;;;;;;;2.05;1.40;;;17.70;99.90;;;;;;5074725;28;20230;-73
2021/05/14 11:27:07;;;;;;;2.47;1.48;;;17.80;99.90;;;;;;5090038;28;20202;-73
2021/05/14 11:29:41;;;;;;;4.85;1.35;;;17.50;99.90;;;;;;5091916;28;20733;-74
2021/05/14 11:32:23;;;;;;;3.42;1.15;;;17.00;99.90;;;;;;5088106;28;20201;-74
2021/05/14 11:35:11;;;;;;;2.60;0.88;;;16.90;99.90;;;;;;5092231;28;20209;-75
2021/05/14 11:37:39;;;;;;;1.77;0.70;;;17.10;99.90;;;;;;5091545;28;20652;-73
2021/05/14 11:40:08;;;;;;;3.50;1.25;;;17.40;99.90;;;;;;5091224;28;20730;-75
2021/05/14 11:42:40;;;;;;;1.73;1.10;;;17.50;99.90;;;;;;5091449;28;20201;-74
2021/05/14 11:45:11;;;;;;;3.00;0.77;;;17.90;99.90;;;;;;5077257;28;20233;-73
2021/05/14 11:47:43;;;;;;;1.50;1.02;;;18.40;99.90;;;;;;5067926;28;20214;-75
2021/05/14 11:50:10;;;;;;;2.33;0.73;;;17.70;99.90;;;;;;5080154;28;20665;-75
2021/05/14 11:52:39;;;;;;;3.00;1.60;;;17.30;99.90;;;;;;5080848;28;20696;-73
2021/05/14 11:55:12;;;;;;;3.53;1.27;;;16.80;99.90;;;;;;5086103;28;20224;-75
2021/05/14 11:57:39;;;;;;;1.23;0.82;;;17.10;99.90;;;;;;5081968;28;20213;-76
2021/05/14 12:00:10;;;;;;;1.23;1.10;;;18.10;99.90;;;;;;5086381;28;20205;-74
2021/05/14 12:02:41;;;;;;;2.45;0.98;;;18.40;99.90;;;;;;5067294;28;20580;-79
2021/05/14 12:05:10;;;;;;;1.20;1.02;;;18.10;99.90;;;;;;5068441;28;20229;-75
2021/05/14 12:07:37;;;;;;;6.50;1.60;;;17.70;99.90;;;;;;5083077;28;20271;-74
2021/05/14 12:10:06;;;;;;;1.77;0.90;;;17.70;99.90;;;;;;5085430;28;20214;-76
2021/05/14 12:12:32;;;;;;;6.80;1.27;;;18.20;99.90;;;;;;5084538;28;20209;-75
2021/05/14 12:15:11;;;;;;;2.20;1.23;;;19.10;99.90;;;;;;5083833;28;20205;-76
2021/05/14 12:17:38;;;;;;;2.80;1.00;;;19.30;99.90;;;;;;5084312;28;20213;-78
2021/05/14 12:20:31;;;;;;;3.63;1.13;;;18.00;99.90;;;;;;5083629;28;20585;-75
2021/05/14 12:22:59;;;;;;;8.13;1.95;;;17.30;99.90;;;;;;5082332;28;20581;-77
2021/05/14 12:25:27;;;;;;;4.55;1.17;;;16.70;99.90;;;;;;5085689;28;20319;-77
2021/05/14 12:27:55;;;;;;;6.00;2.58;;;16.80;99.90;;;;;;5089342;28;20210;-77
2021/05/14 12:30:38;;;;;;;5.65;1.98;;;17.30;99.90;;;;;;5090714;28;20730;-76
2021/05/14 12:33:07;;;;;;;56.28;25.05;;;17.30;99.90;;;;;;5090539;28;20243;-77
2021/05/14 12:35:34;;;;;;;31.25;12.93;;;17.20;99.90;;;;;;5090582;28;20213;-77
2021/05/14 12:38:02;;;;;;;11.70;4.38;;;16.90;99.90;;;;;;5089739;28;20217;-77
2021/05/14 12:40:34;;;;;;;5.97;3.20;;;15.70;99.90;;;;;;5089135;28;20239;-72
2021/05/14 12:43:11;;;;;;;2.90;1.42;;;14.50;99.90;;;;;;5066485;28;20258;-78
2021/05/14 12:45:40;;;;;;;4.07;1.30;;;13.70;99.90;;;;;;5089315;28;20992;-74
2021/05/14 12:48:10;;;;;;;5.28;1.85;;;13.80;99.90;;;;;;5089316;28;20699;-74
2021/05/14 12:50:37;;;;;;;5.60;2.22;;;14.20;99.90;;;;;;5090459;28;20266;-74
2021/05/14 12:53:03;;;;;;;3.42;1.70;;;14.40;99.90;;;;;;5089814;28;20213;-74